Time;durP1;ratioP1;P1;durP2;ratioP2;P2;SDS_P1;SDS_P2;PMS_P1;PMS_P2;Temp;Humidity;BMP_temperature;BMP_pressure;BME280_temperature;BME280_humidity;BME280_pressure;Samples;Min_cycle;Max_cycle;Signal;HPM_P1;HPM_P2
2023/08/30 00:00:11;;;;;;;8.45;5.45;;;12.10;95.80;;;;;;5024164;28;20353;-69
2023/08/30 00:02:37;;;;;;;8.82;5.97;;;12.10;95.80;;;;;;5026371;28;20029;-71
2023/08/30 00:05:03;;;;;;;8.98;5.30;;;12.10;96.10;;;;;;5032088;28;20037;-70
2023/08/30 00:07:29;;;;;;;8.23;5.15;;;12.10;95.90;;;;;;5025189;28;20159;-70
2023/08/30 00:09:56;;;;;;;8.52;5.55;;;12.10;95.80;;;;;;5023691;28;20029;-69
2023/08/30 00:12:21;;;;;;;9.23;5.25;;;12.10;96.10;;;;;;5032345;28;20041;-70
2023/08/30 00:14:47;;;;;;;8.13;5.82;;;12.10;96.40;;;;;;5015741;28;20488;-71
2023/08/30 00:17:12;;;;;;;7.07;5.32;;;12.00;96.30;;;;;;5012667;28;20072;-70
2023/08/30 00:19:38;;;;;;;8.88;5.63;;;12.00;96.10;;;;;;5029391;28;20036;-69
2023/08/30 00:22:07;;;;;;;9.00;6.00;;;11.90;95.90;;;;;;5028363;28;20088;-69
2023/08/30 00:24:32;;;;;;;8.10;5.35;;;11.90;96.10;;;;;;5023145;28;20045;-70
2023/08/30 00:26:58;;;;;;;9.00;5.50;;;11.80;96.00;;;;;;5015261;28;20037;-70
2023/08/30 00:29:23;;;;;;;9.15;5.82;;;11.80;95.90;;;;;;5023036;28;20502;-69
2023/08/30 00:31:49;;;;;;;10.10;5.93;;;11.80;96.20;;;;;;5023840;28;20037;-69
2023/08/30 00:34:14;;;;;;;12.40;6.93;;;11.80;96.70;;;;;;5025482;28;20536;-70
2023/08/30 00:36:40;;;;;;;10.57;6.57;;;11.70;97.10;;;;;;5021948;28;20045;-69
2023/08/30 00:39:06;;;;;;;8.15;5.88;;;11.60;97.00;;;;;;5026161;28;20063;-70
2023/08/30 00:41:31;;;;;;;12.70;6.68;;;11.60;97.00;;;;;;5019907;28;20025;-70
2023/08/30 00:43:57;;;;;;;10.85;5.85;;;11.50;96.80;;;;;;5031988;28;20653;-70
2023/08/30 00:46:22;;;;;;;12.07;7.43;;;11.50;96.60;;;;;;5038125;28;20040;-69
2023/08/30 00:48:48;;;;;;;13.77;7.53;;;11.50;96.60;;;;;;5026587;28;20482;-70
2023/08/30 00:51:13;;;;;;;10.30;6.68;;;11.50;96.90;;;;;;5031663;28;20102;-70
2023/08/30 00:53:39;;;;;;;9.77;6.75;;;11.50;97.20;;;;;;5040556;28;20037;-70
2023/08/30 00:56:05;;;;;;;9.82;7.32;;;11.50;97.40;;;;;;5031818;28;20037;-70
2023/08/30 00:58:31;;;;;;;11.18;7.03;;;11.40;97.10;;;;;;5033313;28;20045;-69
2023/08/30 01:00:57;;;;;;;9.95;7.13;;;11.30;96.80;;;;;;5028576;28;20033;-71
2023/08/30 01:03:23;;;;;;;10.65;6.63;;;11.30;96.60;;;;;;5026847;28;20080;-69
2023/08/30 01:05:48;;;;;;;10.73;7.53;;;11.30;96.40;;;;;;5025975;28;20021;-70
2023/08/30 01:08:14;;;;;;;10.15;7.13;;;11.30;96.30;;;;;;5027118;28;20115;-69
2023/08/30 01:11:01;;;;;;;12.48;8.30;;;11.30;96.60;;;;;;5025833;28;20034;-70
2023/08/30 01:13:30;;;;;;;11.23;8.02;;;11.30;96.60;;;;;;5026106;28;20394;-70
2023/08/30 01:15:57;;;;;;;14.65;9.68;;;11.30;96.70;;;;;;5021382;28;20473;-71
2023/08/30 01:18:26;;;;;;;12.98;10.15;;;11.40;96.70;;;;;;5026695;28;20355;-69
2023/08/30 01:20:53;;;;;;;14.18;10.93;;;11.40;96.80;;;;;;5028396;28;20110;-70
2023/08/30 01:23:51;;;;;;;15.85;11.20;;;11.50;97.00;;;;;;5028794;28;20037;-70
2023/08/30 01:26:36;;;;;;;18.17;13.23;;;11.60;97.50;;;;;;5007806;28;20091;-70
2023/08/30 01:29:03;;;;;;;19.98;13.48;;;11.70;97.70;;;;;;5029393;28;20164;-70
2023/08/30 01:31:33;;;;;;;18.60;13.63;;;11.80;97.90;;;;;;5017780;28;20497;-69
2023/08/30 01:34:00;;;;;;;22.70;14.52;;;11.90;98.10;;;;;;5020327;28;20185;-70
2023/08/30 01:36:26;;;;;;;21.23;15.07;;;11.90;98.10;;;;;;5030537;28;20030;-69
2023/08/30 01:38:53;;;;;;;21.92;15.85;;;12.00;98.10;;;;;;5017449;28;21723;-70
2023/08/30 01:41:20;;;;;;;23.05;15.73;;;12.00;98.10;;;;;;5024709;28;20038;-70
2023/08/30 01:43:47;;;;;;;23.50;15.57;;;12.00;98.00;;;;;;5022954;28;20029;-70
2023/08/30 01:46:13;;;;;;;22.25;14.40;;;12.00;98.00;;;;;;5019792;28;20021;-70
2023/08/30 01:48:39;;;;;;;21.70;14.15;;;12.00;97.80;;;;;;5026291;28;20036;-69
2023/08/30 01:51:06;;;;;;;19.95;13.38;;;12.00;97.70;;;;;;5033272;28;20041;-69
2023/08/30 01:53:32;;;;;;;17.30;13.07;;;12.00;97.40;;;;;;5030333;28;20370;-70
2023/08/30 01:55:57;;;;;;;18.50;11.93;;;12.00;97.20;;;;;;5026208;28;20030;-70
2023/08/30 01:58:23;;;;;;;16.95;12.48;;;12.00;97.20;;;;;;5027460;28;20034;-70
2023/08/30 02:00:48;;;;;;;16.25;11.85;;;12.00;97.20;;;;;;5025146;28;20038;-70
2023/08/30 02:03:14;;;;;;;16.35;11.85;;;12.00;97.20;;;;;;5039959;28;20535;-70
2023/08/30 02:05:49;;;;;;;16.50;11.63;;;12.00;97.20;;;;;;5021556;28;20030;-69
2023/08/30 02:08:16;;;;;;;15.80;11.48;;;12.00;97.30;;;;;;5038039;28;20552;-69
2023/08/30 02:10:51;;;;;;;19.75;12.07;;;12.00;97.60;;;;;;5029551;28;20088;-70
2023/08/30 02:13:21;;;;;;;16.08;11.75;;;12.00;97.60;;;;;;5021168;28;20517;-70
2023/08/30 02:15:48;;;;;;;14.90;11.07;;;12.00;97.70;;;;;;5021512;28;20104;-70
2023/08/30 02:18:13;;;;;;;13.77;10.77;;;12.00;97.70;;;;;;5033090;28;20027;-70
2023/08/30 02:20:39;;;;;;;15.27;11.32;;;12.00;97.70;;;;;;5035692;28;20025;-69
2023/08/30 02:23:05;;;;;;;14.77;10.98;;;12.10;97.70;;;;;;5021950;28;20469;-69
2023/08/30 02:25:30;;;;;;;16.73;12.13;;;12.10;97.60;;;;;;5025975;28;20046;-71
2023/08/30 02:27:55;;;;;;;17.48;11.75;;;12.10;97.60;;;;;;5029996;28;20033;-70
2023/08/30 02:30:21;;;;;;;15.88;12.43;;;12.10;97.60;;;;;;5027025;28;20395;-70
2023/08/30 02:32:46;;;;;;;17.58;12.57;;;12.10;97.50;;;;;;5024713;28;20493;-70
2023/08/30 02:35:12;;;;;;;19.70;14.38;;;12.20;97.70;;;;;;5028976;28;20052;-70
2023/08/30 02:37:39;;;;;;;20.08;14.85;;;12.30;97.80;;;;;;5030560;28;20033;-70
2023/08/30 02:40:05;;;;;;;21.65;15.23;;;12.30;97.80;;;;;;5022367;28;20102;-70
2023/08/30 02:42:31;;;;;;;23.48;16.30;;;12.30;97.80;;;;;;5024127;28;20112;-70
2023/08/30 02:44:56;;;;;;;26.08;17.48;;;12.40;97.90;;;;;;5036266;28;20406;-71
2023/08/30 02:47:22;;;;;;;25.67;17.52;;;12.50;97.90;;;;;;5027097;28;20044;-70
2023/08/30 02:49:47;;;;;;;26.58;16.98;;;12.50;97.80;;;;;;5029905;28;20037;-70
2023/08/30 02:52:13;;;;;;;28.85;18.05;;;12.50;97.80;;;;;;5020762;28;20030;-70
2023/08/30 02:54:38;;;;;;;24.92;17.30;;;12.50;97.70;;;;;;5027862;28;20505;-71
2023/08/30 02:57:04;;;;;;;29.10;17.48;;;12.60;97.80;;;;;;5018088;28;20034;-70
2023/08/30 02:59:29;;;;;;;27.10;17.98;;;12.70;97.80;;;;;;5031894;28;20059;-70
2023/08/30 03:01:55;;;;;;;24.73;16.35;;;12.70;97.60;;;;;;5023761;28;20033;-70
2023/08/30 03:04:20;;;;;;;25.35;16.35;;;12.60;97.70;;;;;;5030887;28;20493;-70
2023/08/30 03:06:46;;;;;;;25.58;17.13;;;12.70;97.60;;;;;;5023582;28;20025;-69
2023/08/30 03:09:12;;;;;;;26.48;16.40;;;12.70;97.70;;;;;;5030379;28;20033;-70
2023/08/30 03:11:37;;;;;;;24.38;17.33;;;12.80;97.80;;;;;;5029735;28;20033;-70
2023/08/30 03:14:03;;;;;;;21.98;16.23;;;12.80;97.50;;;;;;5030951;28;20021;-70
2023/08/30 03:16:29;;;;;;;23.17;14.73;;;12.80;97.40;;;;;;5030692;28;20033;-70
2023/08/30 03:18:54;;;;;;;23.35;15.73;;;12.70;97.30;;;;;;5040080;28;20469;-70
2023/08/30 03:21:19;;;;;;;21.20;15.45;;;12.70;97.30;;;;;;5040425;28;20029;-70
2023/08/30 03:23:45;;;;;;;20.30;15.05;;;12.70;97.50;;;;;;5027853;28;20514;-69
2023/08/30 03:26:17;;;;;;;22.75;14.52;;;12.70;97.50;;;;;;5080594;28;20368;-70
2023/08/30 03:28:44;;;;;;;23.40;15.70;;;12.70;97.40;;;;;;5070520;28;20028;-70
2023/08/30 03:31:17;;;;;;;20.63;14.70;;;12.70;97.40;;;;;;5064585;28;20029;-70
2023/08/30 03:33:43;;;;;;;21.25;14.20;;;12.70;97.40;;;;;;5071792;28;20024;-69
2023/08/30 03:36:10;;;;;;;22.20;15.10;;;12.70;97.40;;;;;;5071239;28;20392;-70
2023/08/30 03:38:36;;;;;;;20.65;14.98;;;12.70;97.50;;;;;;5067113;28;20048;-69
2023/08/30 03:41:03;;;;;;;20.58;14.75;;;12.60;97.40;;;;;;5068596;28;20063;-70
2023/08/30 03:43:29;;;;;;;19.23;13.20;;;12.70;97.60;;;;;;5070534;28;20440;-70
2023/08/30 03:45:54;;;;;;;22.90;14.48;;;12.60;97.40;;;;;;5069208;28;20072;-72
2023/08/30 03:48:20;;;;;;;19.20;13.75;;;12.60;97.40;;;;;;5063989;28;20041;-70
2023/08/30 03:50:45;;;;;;;17.77;13.57;;;12.60;97.40;;;;;;5067703;28;20441;-70
2023/08/30 03:53:11;;;;;;;17.50;13.07;;;12.60;97.30;;;;;;5064170;28;20071;-70
2023/08/30 03:55:36;;;;;;;19.30;13.40;;;12.60;97.40;;;;;;5062505;28;20491;-69
2023/08/30 03:58:03;;;;;;;19.90;13.30;;;12.70;97.30;;;;;;5071372;28;20055;-70
2023/08/30 04:00:28;;;;;;;20.13;14.18;;;12.60;97.30;;;;;;5062318;28;20125;-71
2023/08/30 04:02:54;;;;;;;16.67;13.02;;;12.60;97.30;;;;;;5062462;28;20103;-70
2023/08/30 04:05:19;;;;;;;17.92;13.07;;;12.70;97.30;;;;;;5064129;28;20123;-70
2023/08/30 04:07:45;;;;;;;18.27;13.73;;;12.70;97.30;;;;;;5071382;28;20093;-70
2023/08/30 04:10:10;;;;;;;16.95;12.32;;;12.60;97.10;;;;;;5075408;28;20450;-70
2023/08/30 04:12:36;;;;;;;19.30;14.18;;;12.60;97.20;;;;;;5064320;28;20043;-70
2023/08/30 04:15:02;;;;;;;19.85;12.90;;;12.60;97.30;;;;;;5075430;28;20056;-70
2023/08/30 04:17:27;;;;;;;16.77;13.38;;;12.70;97.20;;;;;;5062936;28;20043;-70
2023/08/30 04:19:53;;;;;;;19.13;12.75;;;12.70;97.00;;;;;;5068405;28;20376;-70
2023/08/30 04:22:19;;;;;;;18.75;13.32;;;12.80;97.00;;;;;;5058948;28;20074;-70
2023/08/30 04:24:46;;;;;;;18.48;12.80;;;12.80;96.90;;;;;;5061821;28;20445;-70
2023/08/30 04:27:11;;;;;;;20.65;13.27;;;12.80;96.90;;;;;;5062256;28;20040;-65
2023/08/30 04:29:37;;;;;;;16.40;12.60;;;12.90;96.80;;;;;;5058873;28;20070;-68
2023/08/30 04:32:02;;;;;;;16.90;11.60;;;12.90;96.50;;;;;;5061354;28;20357;-68
2023/08/30 04:34:29;;;;;;;17.40;11.77;;;12.90;96.40;;;;;;5056412;28;20037;-69
2023/08/30 04:36:55;;;;;;;16.52;11.75;;;12.90;96.40;;;;;;5055137;28;20037;-68
2023/08/30 04:39:20;;;;;;;16.90;11.50;;;12.90;96.40;;;;;;5049608;28;20047;-68
2023/08/30 04:41:46;;;;;;;15.02;11.68;;;13.00;96.30;;;;;;5047358;28;20039;-67
2023/08/30 04:44:11;;;;;;;16.55;11.00;;;13.00;96.20;;;;;;5042671;28;20029;-68
2023/08/30 04:46:36;;;;;;;14.30;10.88;;;13.00;96.10;;;;;;5039844;28;20555;-69
2023/08/30 04:49:02;;;;;;;14.60;11.80;;;13.00;96.00;;;;;;5046864;28;20040;-68
2023/08/30 04:51:28;;;;;;;14.57;10.77;;;13.00;96.00;;;;;;5045798;28;20021;-69
2023/08/30 04:53:53;;;;;;;15.75;10.90;;;13.00;96.00;;;;;;5048243;28;20424;-67
2023/08/30 04:56:18;;;;;;;12.75;10.45;;;13.10;95.80;;;;;;5047109;28;20079;-69
2023/08/30 04:58:44;;;;;;;12.75;9.98;;;13.10;95.70;;;;;;5042774;28;20083;-68
2023/08/30 05:01:11;;;;;;;12.43;10.40;;;13.10;95.60;;;;;;5046263;28;20036;-68
2023/08/30 05:03:36;;;;;;;12.57;9.73;;;13.20;95.50;;;;;;5051980;28;20021;-68
2023/08/30 05:06:02;;;;;;;14.00;9.73;;;13.30;95.40;;;;;;5051178;28;20497;-68
2023/08/30 05:08:28;;;;;;;12.55;9.70;;;13.30;95.30;;;;;;5049388;28;20478;-68
2023/08/30 05:10:54;;;;;;;13.80;10.40;;;13.30;95.20;;;;;;5048039;28;20070;-69
2023/08/30 05:13:20;;;;;;;13.07;9.77;;;13.30;95.20;;;;;;5048544;28;20041;-68
2023/08/30 05:15:45;;;;;;;14.13;9.70;;;13.30;94.90;;;;;;5051848;28;20500;-68
2023/08/30 05:18:11;;;;;;;13.05;10.07;;;13.30;94.70;;;;;;5048441;28;20055;-67
2023/08/30 05:20:36;;;;;;;12.73;9.40;;;13.40;94.80;;;;;;5046191;28;20036;-69
2023/08/30 05:23:02;;;;;;;15.88;9.60;;;13.40;94.60;;;;;;5045132;28;20030;-67
2023/08/30 05:25:28;;;;;;;11.90;9.27;;;13.40;94.70;;;;;;5046010;28;20566;-68
2023/08/30 05:27:53;;;;;;;14.93;9.23;;;13.50;94.80;;;;;;5048712;28;20095;-68
2023/08/30 05:30:19;;;;;;;15.82;9.68;;;13.50;94.70;;;;;;5049416;28;20469;-67
2023/08/30 05:32:44;;;;;;;11.45;8.90;;;13.50;94.70;;;;;;5046257;28;20104;-67
2023/08/30 05:35:10;;;;;;;13.77;9.60;;;13.50;94.50;;;;;;5049111;28;20040;-68
2023/08/30 05:37:35;;;;;;;11.60;8.70;;;13.60;94.60;;;;;;5047797;28;20439;-68
2023/08/30 05:40:01;;;;;;;13.25;9.63;;;13.60;94.40;;;;;;5048235;28;20123;-67
2023/08/30 05:42:26;;;;;;;10.23;8.57;;;13.60;94.40;;;;;;5046365;28;20481;-68
2023/08/30 05:44:53;;;;;;;10.30;8.60;;;13.60;94.30;;;;;;5048049;28;20036;-68
2023/08/30 05:47:20;;;;;;;10.35;9.00;;;13.70;94.10;;;;;;5045127;28;20025;-67
2023/08/30 05:49:45;;;;;;;12.45;8.80;;;13.80;94.20;;;;;;5049892;28;20027;-68
2023/08/30 05:52:11;;;;;;;10.60;8.52;;;13.90;94.00;;;;;;5049100;28;20040;-67
2023/08/30 05:54:36;;;;;;;11.20;8.07;;;14.00;94.00;;;;;;5049910;28;20048;-67
2023/08/30 05:57:02;;;;;;;12.52;9.02;;;14.00;94.00;;;;;;5050462;28;20104;-69
2023/08/30 05:59:27;;;;;;;11.45;8.70;;;14.00;93.70;;;;;;5044399;28;22314;-68
2023/08/30 06:01:53;;;;;;;10.73;8.50;;;14.10;93.90;;;;;;5041325;28;20037;-68
2023/08/30 06:04:19;;;;;;;12.00;9.55;;;14.20;93.60;;;;;;5052584;28;20117;-68
2023/08/30 06:06:44;;;;;;;13.25;8.45;;;14.10;93.00;;;;;;5047614;28;20021;-67
2023/08/30 06:09:11;;;;;;;14.70;8.77;;;14.20;93.40;;;;;;5046011;28;20029;-68
2023/08/30 06:11:37;;;;;;;10.98;8.68;;;14.20;93.10;;;;;;5045750;28;20028;-68
2023/08/30 06:14:03;;;;;;;12.20;8.85;;;14.20;93.20;;;;;;5049923;28;20040;-67
2023/08/30 06:16:28;;;;;;;11.38;8.88;;;14.30;92.90;;;;;;5043548;28;20028;-67
2023/08/30 06:18:54;;;;;;;15.38;9.05;;;14.30;92.90;;;;;;5042270;28;20029;-67
2023/08/30 06:21:19;;;;;;;11.73;9.27;;;14.30;92.80;;;;;;5046685;28;20039;-68
2023/08/30 06:23:45;;;;;;;12.95;8.55;;;14.40;92.70;;;;;;5047554;28;20453;-67
2023/08/30 06:26:10;;;;;;;10.68;8.30;;;14.50;92.80;;;;;;5040531;28;20040;-68
2023/08/30 06:28:36;;;;;;;14.30;8.93;;;14.60;92.80;;;;;;5047734;28;20492;-68
2023/08/30 06:31:01;;;;;;;12.57;9.63;;;14.60;92.60;;;;;;5038873;28;20024;-68
2023/08/30 06:33:27;;;;;;;10.73;9.10;;;14.60;92.20;;;;;;5048645;28;20082;-67
2023/08/30 06:35:53;;;;;;;10.45;8.23;;;14.60;92.40;;;;;;5047516;28;20032;-68
2023/08/30 06:38:19;;;;;;;11.23;8.27;;;14.70;92.20;;;;;;5045622;28;20067;-69
2023/08/30 06:40:45;;;;;;;13.18;9.05;;;14.80;92.20;;;;;;5045082;28;20059;-67
2023/08/30 06:43:12;;;;;;;13.18;9.18;;;14.80;91.80;;;;;;5048291;28;20404;-67
2023/08/30 06:45:39;;;;;;;11.65;8.18;;;14.70;91.80;;;;;;5049518;28;20036;-67
2023/08/30 06:48:06;;;;;;;11.38;9.05;;;14.90;91.80;;;;;;5044386;28;20458;-67
2023/08/30 06:50:31;;;;;;;11.43;8.90;;;15.00;91.70;;;;;;5048691;28;20523;-68
2023/08/30 06:52:57;;;;;;;11.60;9.60;;;15.00;91.70;;;;;;5049265;28;20040;-68
2023/08/30 06:55:22;;;;;;;13.18;9.45;;;15.00;91.50;;;;;;5047202;28;20349;-69
2023/08/30 06:57:49;;;;;;;11.93;9.63;;;15.00;91.50;;;;;;5053370;28;20037;-67
2023/08/30 07:00:16;;;;;;;12.68;9.63;;;15.00;91.10;;;;;;5044896;28;20025;-67
2023/08/30 07:02:44;;;;;;;13.15;9.43;;;15.10;91.50;;;;;;5045721;28;20031;-67
2023/08/30 07:05:10;;;;;;;15.38;9.98;;;15.10;91.60;;;;;;5050819;28;20517;-68
2023/08/30 07:07:36;;;;;;;12.68;9.30;;;15.00;91.60;;;;;;5050282;28;20032;-68
2023/08/30 07:10:02;;;;;;;12.75;9.85;;;15.20;91.60;;;;;;5054774;28;20021;-67
2023/08/30 07:12:28;;;;;;;15.77;10.80;;;15.30;91.60;;;;;;5047635;28;20473;-69
2023/08/30 07:14:53;;;;;;;14.32;10.02;;;15.40;91.10;;;;;;5044587;28;20040;-67
2023/08/30 07:17:19;;;;;;;15.15;10.10;;;15.40;91.10;;;;;;5048812;28;20565;-67
2023/08/30 07:19:45;;;;;;;12.20;9.40;;;15.50;91.40;;;;;;5057205;28;20025;-67
2023/08/30 07:22:10;;;;;;;12.38;9.75;;;15.70;91.00;;;;;;5045039;28;20037;-68
2023/08/30 07:24:36;;;;;;;12.35;10.32;;;15.80;90.50;;;;;;5044073;28;20042;-68
2023/08/30 07:27:01;;;;;;;12.35;9.60;;;15.90;90.30;;;;;;5049403;28;20032;-67
2023/08/30 07:29:27;;;;;;;13.00;10.13;;;16.00;89.80;;;;;;5047797;28;20025;-68
2023/08/30 07:31:53;;;;;;;13.10;9.55;;;15.90;89.60;;;;;;5043069;28;20029;-68
2023/08/30 07:34:18;;;;;;;14.27;9.80;;;15.90;89.50;;;;;;5041594;28;20029;-68
2023/08/30 07:36:44;;;;;;;12.57;9.70;;;16.00;89.60;;;;;;5045509;28;20434;-67
2023/08/30 07:39:09;;;;;;;13.95;9.63;;;16.00;89.40;;;;;;5049827;28;20108;-68
2023/08/30 07:41:35;;;;;;;12.60;9.32;;;16.10;88.90;;;;;;5049157;28;20061;-68
2023/08/30 07:44:01;;;;;;;11.98;9.27;;;16.10;89.30;;;;;;5048907;28;20040;-68
2023/08/30 07:46:26;;;;;;;15.73;9.60;;;16.30;88.80;;;;;;5047224;28;20037;-68
2023/08/30 07:48:52;;;;;;;12.77;9.30;;;16.20;88.70;;;;;;5036940;28;20358;-67
2023/08/30 07:51:17;;;;;;;11.20;8.48;;;16.50;89.30;;;;;;5045090;28;20074;-68
2023/08/30 07:53:43;;;;;;;12.68;9.23;;;16.60;88.20;;;;;;5045969;28;20086;-67
2023/08/30 07:56:08;;;;;;;11.70;9.15;;;16.70;88.10;;;;;;5050353;28;20036;-68
2023/08/30 07:58:34;;;;;;;11.55;9.52;;;17.00;87.90;;;;;;5041758;28;20381;-68
2023/08/30 08:00:59;;;;;;;11.15;8.30;;;16.90;86.50;;;;;;5038494;28;20036;-69
2023/08/30 08:03:25;;;;;;;14.05;7.80;;;17.10;86.80;;;;;;5042752;28;20029;-68
2023/08/30 08:05:51;;;;;;;11.98;8.75;;;17.30;86.60;;;;;;5050525;28;20064;-67
2023/08/30 08:08:16;;;;;;;16.10;7.97;;;17.50;86.60;;;;;;5050025;28;20108;-68
2023/08/30 08:10:42;;;;;;;9.50;7.25;;;17.60;85.00;;;;;;5049107;28;20025;-68
2023/08/30 08:13:08;;;;;;;11.80;7.70;;;17.70;84.80;;;;;;5052552;28;20029;-68
2023/08/30 08:15:34;;;;;;;12.25;7.43;;;18.00;84.20;;;;;;5043403;28;20412;-68
2023/08/30 08:18:00;;;;;;;10.18;7.47;;;18.20;84.50;;;;;;5047142;28;20057;-69
2023/08/30 08:20:26;;;;;;;10.90;7.25;;;18.30;83.50;;;;;;5054061;28;20039;-69
2023/08/30 08:22:52;;;;;;;9.50;7.18;;;18.20;82.90;;;;;;5044536;28;20580;-68
2023/08/30 08:25:17;;;;;;;10.00;7.75;;;18.20;83.20;;;;;;5050212;28;20049;-68
2023/08/30 08:27:43;;;;;;;11.90;7.15;;;18.00;83.50;;;;;;5047887;28;20033;-68
2023/08/30 08:30:09;;;;;;;10.95;7.03;;;18.10;83.10;;;;;;5046678;28;20389;-69
2023/08/30 08:32:35;;;;;;;10.52;7.25;;;18.30;82.40;;;;;;5045622;28;20052;-69
2023/08/30 08:35:01;;;;;;;8.93;7.03;;;18.30;83.60;;;;;;5049788;28;20068;-67
2023/08/30 08:37:27;;;;;;;11.63;6.82;;;18.60;83.50;;;;;;5050083;28;20043;-67
2023/08/30 08:39:52;;;;;;;12.40;7.35;;;18.60;82.30;;;;;;5053115;28;20111;-68
2023/08/30 08:42:19;;;;;;;10.48;7.07;;;18.40;80.50;;;;;;5051962;28;20104;-67
2023/08/30 08:44:48;;;;;;;11.60;7.70;;;18.30;80.60;;;;;;5047204;28;20032;-67
2023/08/30 08:47:15;;;;;;;11.45;8.30;;;18.00;80.50;;;;;;5040912;28;20089;-68
2023/08/30 08:49:42;;;;;;;14.52;7.97;;;18.00;80.20;;;;;;5043312;28;20162;-68
2023/08/30 08:52:07;;;;;;;11.40;7.93;;;18.00;81.80;;;;;;5053750;28;20163;-67
2023/08/30 08:54:33;;;;;;;10.60;7.28;;;18.00;82.20;;;;;;5048268;28;20509;-68
2023/08/30 08:57:00;;;;;;;11.65;7.13;;;18.00;82.00;;;;;;5051655;28;20572;-69
2023/08/30 08:59:25;;;;;;;15.18;8.25;;;18.00;82.50;;;;;;5050040;28;20099;-67
2023/08/30 09:01:52;;;;;;;10.32;7.97;;;17.90;82.30;;;;;;5047805;28;20211;-68
2023/08/30 09:04:18;;;;;;;12.43;8.15;;;18.00;83.40;;;;;;5048423;28;20036;-68
2023/08/30 09:06:44;;;;;;;15.80;8.38;;;18.10;82.70;;;;;;5044235;28;20036;-67
2023/08/30 09:09:09;;;;;;;12.52;8.38;;;18.10;82.60;;;;;;5051436;28;20512;-67
2023/08/30 09:11:36;;;;;;;11.32;8.32;;;18.30;83.00;;;;;;5055868;28;20447;-68
2023/08/30 09:14:01;;;;;;;12.80;8.10;;;18.30;81.20;;;;;;5047173;28;20034;-68
2023/08/30 09:16:27;;;;;;;13.50;8.43;;;18.30;80.50;;;;;;5050091;28;20397;-68
2023/08/30 09:19:00;;;;;;;14.40;8.52;;;18.40;80.60;;;;;;5050910;28;20034;-69
2023/08/30 09:21:26;;;;;;;13.43;8.77;;;18.60;78.80;;;;;;5053900;28;20017;-67
2023/08/30 09:24:06;;;;;;;13.57;8.50;;;18.60;78.90;;;;;;5051980;28;20047;-68
2023/08/30 09:26:33;;;;;;;11.05;8.10;;;18.60;79.70;;;;;;5049331;28;20033;-68
2023/08/30 09:29:06;;;;;;;10.88;6.70;;;18.60;77.20;;;;;;5045237;28;20025;-67
2023/08/30 09:31:40;;;;;;;10.18;7.72;;;18.60;75.20;;;;;;5045844;28;20377;-68
2023/08/30 09:34:06;;;;;;;9.38;7.03;;;18.50;75.30;;;;;;5051226;28;20032;-68
2023/08/30 09:36:38;;;;;;;11.13;7.85;;;18.60;77.60;;;;;;5045530;28;20029;-68
2023/08/30 09:39:09;;;;;;;11.95;7.97;;;18.70;77.30;;;;;;5048038;28;20025;-68
2023/08/30 09:41:35;;;;;;;;;;;19.00;77.90;;;;;;5047710;28;20025;-68
2023/08/30 09:44:07;;;;;;;12.05;6.25;;;19.10;74.80;;;;;;5048772;28;19912;-67
2023/08/30 09:46:39;;;;;;;10.63;7.10;;;19.40;73.40;;;;;;5050589;28;20033;-69
2023/08/30 09:49:05;;;;;;;10.18;5.95;;;19.30;74.10;;;;;;5047747;28;20028;-68
2023/08/30 09:51:32;;;;;;;8.48;6.15;;;19.30;73.50;;;;;;5050713;28;20025;-67
2023/08/30 09:54:03;;;;;;;7.90;5.38;;;19.30;73.50;;;;;;5051524;28;20019;-68
2023/08/30 09:56:30;;;;;;;8.48;5.68;;;19.40;72.60;;;;;;5050914;28;20473;-68
2023/08/30 09:58:59;;;;;;;8.20;5.90;;;19.50;71.20;;;;;;5047347;28;20025;-70
2023/08/30 10:01:26;;;;;;;11.52;5.65;;;19.70;73.30;;;;;;5050418;28;20029;-68
2023/08/30 10:03:52;;;;;;;9.35;5.82;;;19.70;71.80;;;;;;5049982;28;20354;-69
2023/08/30 10:06:18;;;;;;;8.77;6.65;;;19.70;71.30;;;;;;5045627;28;20044;-68
2023/08/30 10:08:46;;;;;;;10.48;5.63;;;20.00;73.00;;;;;;5043596;28;20056;-68
2023/08/30 10:11:13;;;;;;;8.95;5.60;;;20.50;71.70;;;;;;5048290;28;20035;-68
2023/08/30 10:13:43;;;;;;;8.57;4.78;;;20.30;71.30;;;;;;5045246;28;20029;-70
2023/08/30 10:16:15;;;;;;;7.15;4.78;;;20.40;70.80;;;;;;5043871;28;20060;-68
2023/08/30 10:18:41;;;;;;;6.18;4.53;;;20.60;69.90;;;;;;5045764;28;20163;-68
2023/08/30 10:21:11;;;;;;;8.52;4.45;;;20.30;68.20;;;;;;5051706;28;20037;-68
2023/08/30 10:23:37;;;;;;;9.07;4.70;;;20.40;69.40;;;;;;5043853;28;20040;-68
2023/08/30 10:26:04;;;;;;;8.18;4.85;;;20.40;67.70;;;;;;5050491;28;20568;-68
2023/08/30 10:28:32;;;;;;;9.65;4.72;;;20.40;68.20;;;;;;5051323;28;20079;-68
2023/08/30 10:30:58;;;;;;;8.35;4.70;;;20.60;69.50;;;;;;5043639;28;20025;-71
2023/08/30 10:33:25;;;;;;;9.05;5.13;;;20.80;67.70;;;;;;5051542;28;20052;-68
2023/08/30 10:35:51;;;;;;;10.57;5.53;;;20.90;66.20;;;;;;5045291;28;20021;-68
2023/08/30 10:38:28;;;;;;;9.88;5.15;;;21.00;67.60;;;;;;5052159;28;20388;-68
2023/08/30 10:41:05;;;;;;;7.28;5.30;;;21.30;64.90;;;;;;5040760;28;20048;-70
2023/08/30 10:43:35;;;;;;;6.38;4.10;;;21.30;65.90;;;;;;5044644;28;20388;-69
2023/08/30 10:46:11;;;;;;;7.85;4.28;;;21.00;68.30;;;;;;5046295;28;20020;-68
2023/08/30 10:48:42;;;;;;;7.55;4.80;;;21.30;67.00;;;;;;5050630;28;20102;-68
2023/08/30 10:51:34;;;;;;;7.00;4.47;;;20.60;64.20;;;;;;5038823;28;20036;-68
2023/08/30 10:53:59;;;;;;;8.02;4.65;;;20.70;66.70;;;;;;5050415;28;20037;-68
2023/08/30 10:56:29;;;;;;;6.53;4.25;;;20.80;68.20;;;;;;5045944;28;20481;-68
2023/08/30 10:58:55;;;;;;;7.10;4.70;;;20.70;65.20;;;;;;5048441;28;20033;-68
2023/08/30 11:01:20;;;;;;;6.65;4.63;;;20.80;65.70;;;;;;5043412;28;20037;-69
2023/08/30 11:03:46;;;;;;;8.38;4.07;;;21.10;65.60;;;;;;5045620;28;20128;-67
2023/08/30 11:06:17;;;;;;;8.82;4.55;;;21.20;67.80;;;;;;5048681;28;20029;-68
2023/08/30 11:08:43;;;;;;;;;;;21.30;65.80;;;;;;5048776;28;20024;-67
2023/08/30 11:11:10;;;;;;;10.35;5.78;;;21.60;64.80;;;;;;5042857;28;19909;-68
2023/08/30 11:13:36;;;;;;;7.88;4.63;;;21.90;64.30;;;;;;5039689;28;20353;-68
2023/08/30 11:16:03;;;;;;;6.80;4.53;;;22.10;63.00;;;;;;5044499;28;20029;-68
2023/08/30 11:18:30;;;;;;;6.68;4.95;;;21.80;64.80;;;;;;5050002;28;20021;-68
2023/08/30 11:21:00;;;;;;;8.30;4.65;;;21.50;65.70;;;;;;5048502;28;20160;-67
2023/08/30 11:23:26;;;;;;;11.93;4.75;;;21.30;64.60;;;;;;5049499;28;20025;-70
2023/08/30 11:25:52;;;;;;;7.65;4.18;;;21.00;66.20;;;;;;5045831;28;20047;-68
2023/08/30 11:28:24;;;;;;;8.45;4.68;;;21.00;66.40;;;;;;5043521;28;20025;-68
2023/08/30 11:30:53;;;;;;;8.70;4.50;;;20.90;66.10;;;;;;5041798;28;20104;-68
2023/08/30 11:33:19;;;;;;;9.23;5.07;;;21.50;65.70;;;;;;5044437;28;20075;-69
2023/08/30 11:35:45;;;;;;;7.63;4.43;;;21.70;63.50;;;;;;5045292;28;20420;-67
2023/08/30 11:38:10;;;;;;;6.85;4.53;;;21.20;65.10;;;;;;5046901;28;20994;-69
2023/08/30 11:40:36;;;;;;;8.35;4.22;;;21.30;64.50;;;;;;5042648;28;20045;-68
2023/08/30 11:43:02;;;;;;;8.50;4.47;;;21.10;63.10;;;;;;5048566;28;20021;-68
2023/08/30 11:45:31;;;;;;;10.55;3.92;;;21.50;65.10;;;;;;5049545;28;20038;-68
2023/08/30 11:47:59;;;;;;;7.07;3.90;;;21.50;64.00;;;;;;5036345;28;20074;-69
2023/08/30 11:50:25;;;;;;;8.63;4.45;;;21.00;64.70;;;;;;5047504;28;20028;-67
2023/08/30 11:52:51;;;;;;;5.90;3.67;;;20.60;65.60;;;;;;5048521;28;20040;-68
2023/08/30 11:55:16;;;;;;;9.25;4.60;;;20.50;66.80;;;;;;5049020;28;20029;-67
2023/08/30 11:57:45;;;;;;;7.72;4.38;;;20.50;66.30;;;;;;5052262;28;20060;-68
2023/08/30 12:00:11;;;;;;;7.47;4.00;;;20.80;65.90;;;;;;5045537;28;20035;-69
2023/08/30 12:02:38;;;;;;;7.32;4.20;;;21.40;65.20;;;;;;5040967;28;20043;-74
2023/08/30 12:05:03;;;;;;;5.78;3.28;;;21.70;62.40;;;;;;5050358;28;20029;-68
2023/08/30 12:07:30;;;;;;;6.30;3.42;;;21.60;64.00;;;;;;5049129;28;20615;-68
2023/08/30 12:10:11;;;;;;;6.00;3.28;;;21.50;62.40;;;;;;5043323;28;20392;-71
2023/08/30 12:12:37;;;;;;;6.05;3.20;;;21.50;63.60;;;;;;5046068;28;20474;-68
2023/08/30 12:15:14;;;;;;;6.07;3.70;;;21.50;63.30;;;;;;5045409;28;20092;-67
2023/08/30 12:17:39;;;;;;;7.18;3.25;;;21.90;62.60;;;;;;5042559;28;20032;-66
2023/08/30 12:20:06;;;;;;;7.32;3.45;;;22.60;59.70;;;;;;5044157;28;20021;-68
2023/08/30 12:22:41;;;;;;;5.82;3.50;;;22.60;61.00;;;;;;5041558;28;20049;-68
2023/08/30 12:25:36;;;;;;;8.30;3.33;;;22.60;60.80;;;;;;5043451;28;20549;-68
2023/08/30 12:28:03;;;;;;;5.85;3.05;;;22.10;60.10;;;;;;5036694;28;20044;-67
2023/08/30 12:30:29;;;;;;;5.13;3.30;;;21.90;60.00;;;;;;5043682;28;20103;-69
2023/08/30 12:33:02;;;;;;;7.47;4.15;;;22.60;59.40;;;;;;5040597;28;20215;-68